sensor_id;sensor_type;location;lat;lon;timestamp;P1;durP1;ratioP1;P2;durP2;ratioP2
16179;SDS011;8196;49.428;10.906;2023-10-19T00:00:24;18.75;;;12.38;;
16179;SDS011;8196;49.428;10.906;2023-10-19T00:02:51;17.65;;;12.45;;
16179;SDS011;8196;49.428;10.906;2023-10-19T00:05:18;16.40;;;11.52;;
16179;SDS011;8196;49.428;10.906;2023-10-19T00:07:46;18.50;;;11.57;;
16179;SDS011;8196;49.428;10.906;2023-10-19T00:10:13;16.87;;;11.40;;
16179;SDS011;8196;49.428;10.906;2023-10-19T00:12:42;20.25;;;11.43;;
16179;SDS011;8196;49.428;10.906;2023-10-19T00:15:10;16.67;;;11.43;;
16179;SDS011;8196;49.428;10.906;2023-10-19T00:17:38;18.13;;;12.02;;
16179;SDS011;8196;49.428;10.906;2023-10-19T00:20:10;17.17;;;11.95;;
16179;SDS011;8196;49.428;10.906;2023-10-19T00:22:57;18.30;;;12.70;;
16179;SDS011;8196;49.428;10.906;2023-10-19T00:25:25;16.55;;;12.60;;
16179;SDS011;8196;49.428;10.906;2023-10-19T00:27:52;17.17;;;12.35;;
16179;SDS011;8196;49.428;10.906;2023-10-19T00:30:19;17.75;;;12.07;;
16179;SDS011;8196;49.428;10.906;2023-10-19T00:32:49;17.05;;;12.27;;
16179;SDS011;8196;49.428;10.906;2023-10-19T00:35:17;18.65;;;12.25;;
16179;SDS011;8196;49.428;10.906;2023-10-19T00:38:04;17.25;;;12.02;;
16179;SDS011;8196;49.428;10.906;2023-10-19T00:40:51;19.20;;;12.50;;
16179;SDS011;8196;49.428;10.906;2023-10-19T00:43:27;20.02;;;13.48;;
16179;SDS011;8196;49.428;10.906;2023-10-19T00:45:59;19.70;;;13.15;;
16179;SDS011;8196;49.428;10.906;2023-10-19T00:48:28;21.00;;;13.30;;
16179;SDS011;8196;49.428;10.906;2023-10-19T00:50:58;18.65;;;13.25;;
16179;SDS011;8196;49.428;10.906;2023-10-19T00:53:34;18.27;;;13.00;;
16179;SDS011;8196;49.428;10.906;2023-10-19T00:56:03;18.87;;;13.30;;
16179;SDS011;8196;49.428;10.906;2023-10-19T00:58:32;19.40;;;13.02;;
16179;SDS011;8196;49.428;10.906;2023-10-19T01:01:02;21.52;;;13.40;;
16179;SDS011;8196;49.428;10.906;2023-10-19T01:03:33;19.40;;;12.85;;
16179;SDS011;8196;49.428;10.906;2023-10-19T01:06:04;19.05;;;13.57;;
16179;SDS011;8196;49.428;10.906;2023-10-19T01:08:36;18.02;;;12.68;;
16179;SDS011;8196;49.428;10.906;2023-10-19T01:11:11;19.02;;;13.63;;
16179;SDS011;8196;49.428;10.906;2023-10-19T01:13:41;19.63;;;13.07;;
16179;SDS011;8196;49.428;10.906;2023-10-19T01:16:13;18.42;;;12.95;;
16179;SDS011;8196;49.428;10.906;2023-10-19T01:18:49;21.87;;;14.40;;
16179;SDS011;8196;49.428;10.906;2023-10-19T01:21:21;19.63;;;13.52;;
16179;SDS011;8196;49.428;10.906;2023-10-19T01:23:51;19.77;;;13.07;;
16179;SDS011;8196;49.428;10.906;2023-10-19T01:26:19;19.55;;;12.90;;
16179;SDS011;8196;49.428;10.906;2023-10-19T01:28:48;17.98;;;13.27;;
16179;SDS011;8196;49.428;10.906;2023-10-19T01:31:19;19.55;;;13.32;;
16179;SDS011;8196;49.428;10.906;2023-10-19T01:33:55;20.88;;;13.90;;
16179;SDS011;8196;49.428;10.906;2023-10-19T01:36:24;19.92;;;13.30;;
16179;SDS011;8196;49.428;10.906;2023-10-19T01:38:53;18.67;;;12.52;;
16179;SDS011;8196;49.428;10.906;2023-10-19T01:41:22;17.27;;;12.82;;
16179;SDS011;8196;49.428;10.906;2023-10-19T01:43:50;19.85;;;13.30;;
16179;SDS011;8196;49.428;10.906;2023-10-19T01:46:21;20.70;;;14.07;;
16179;SDS011;8196;49.428;10.906;2023-10-19T01:48:50;20.42;;;13.23;;
16179;SDS011;8196;49.428;10.906;2023-10-19T01:51:22;17.13;;;12.05;;
16179;SDS011;8196;49.428;10.906;2023-10-19T01:53:50;18.60;;;12.40;;
16179;SDS011;8196;49.428;10.906;2023-10-19T01:56:19;20.27;;;13.45;;
16179;SDS011;8196;49.428;10.906;2023-10-19T01:58:48;18.70;;;12.80;;
16179;SDS011;8196;49.428;10.906;2023-10-19T02:01:18;20.13;;;12.95;;
16179;SDS011;8196;49.428;10.906;2023-10-19T02:03:47;20.50;;;13.45;;
16179;SDS011;8196;49.428;10.906;2023-10-19T02:06:20;18.00;;;13.25;;
16179;SDS011;8196;49.428;10.906;2023-10-19T02:08:57;19.20;;;12.57;;
16179;SDS011;8196;49.428;10.906;2023-10-19T02:11:27;20.13;;;13.68;;
16179;SDS011;8196;49.428;10.906;2023-10-19T02:13:56;19.63;;;13.70;;
16179;SDS011;8196;49.428;10.906;2023-10-19T02:16:26;19.67;;;13.50;;
16179;SDS011;8196;49.428;10.906;2023-10-19T02:18:58;22.35;;;12.93;;
16179;SDS011;8196;49.428;10.906;2023-10-19T02:21:27;20.42;;;13.50;;
16179;SDS011;8196;49.428;10.906;2023-10-19T02:23:57;20.33;;;13.63;;
16179;SDS011;8196;49.428;10.906;2023-10-19T02:26:24;19.85;;;13.48;;
16179;SDS011;8196;49.428;10.906;2023-10-19T02:28:53;20.63;;;13.60;;
16179;SDS011;8196;49.428;10.906;2023-10-19T02:31:22;20.80;;;13.45;;
16179;SDS011;8196;49.428;10.906;2023-10-19T02:33:52;20.05;;;13.75;;
16179;SDS011;8196;49.428;10.906;2023-10-19T02:36:27;23.33;;;13.52;;
16179;SDS011;8196;49.428;10.906;2023-10-19T02:38:57;21.35;;;13.55;;
16179;SDS011;8196;49.428;10.906;2023-10-19T02:41:26;18.52;;;13.02;;
16179;SDS011;8196;49.428;10.906;2023-10-19T02:43:53;20.63;;;13.20;;
16179;SDS011;8196;49.428;10.906;2023-10-19T02:46:28;19.05;;;12.85;;
16179;SDS011;8196;49.428;10.906;2023-10-19T02:48:56;17.42;;;12.32;;
16179;SDS011;8196;49.428;10.906;2023-10-19T02:51:26;20.98;;;13.52;;
16179;SDS011;8196;49.428;10.906;2023-10-19T02:53:54;20.52;;;13.27;;
16179;SDS011;8196;49.428;10.906;2023-10-19T02:56:21;20.17;;;12.87;;
16179;SDS011;8196;49.428;10.906;2023-10-19T02:58:50;19.42;;;13.10;;
16179;SDS011;8196;49.428;10.906;2023-10-19T03:01:19;20.33;;;13.13;;
16179;SDS011;8196;49.428;10.906;2023-10-19T03:03:48;20.13;;;14.13;;
16179;SDS011;8196;49.428;10.906;2023-10-19T03:06:18;21.67;;;13.48;;
16179;SDS011;8196;49.428;10.906;2023-10-19T03:08:46;18.83;;;12.90;;
16179;SDS011;8196;49.428;10.906;2023-10-19T03:11:14;22.70;;;13.60;;
16179;SDS011;8196;49.428;10.906;2023-10-19T03:13:42;22.25;;;13.82;;
16179;SDS011;8196;49.428;10.906;2023-10-19T03:16:09;20.02;;;13.23;;
16179;SDS011;8196;49.428;10.906;2023-10-19T03:18:37;18.65;;;12.75;;
16179;SDS011;8196;49.428;10.906;2023-10-19T03:21:05;17.15;;;12.85;;
16179;SDS011;8196;49.428;10.906;2023-10-19T03:23:32;19.33;;;13.43;;
16179;SDS011;8196;49.428;10.906;2023-10-19T03:26:02;20.50;;;13.70;;
16179;SDS011;8196;49.428;10.906;2023-10-19T03:28:29;22.40;;;13.77;;
16179;SDS011;8196;49.428;10.906;2023-10-19T03:31:01;21.02;;;12.80;;
16179;SDS011;8196;49.428;10.906;2023-10-19T03:33:29;20.27;;;13.32;;
16179;SDS011;8196;49.428;10.906;2023-10-19T03:35:57;20.25;;;13.60;;
16179;SDS011;8196;49.428;10.906;2023-10-19T03:38:24;21.52;;;13.10;;
16179;SDS011;8196;49.428;10.906;2023-10-19T03:40:52;20.10;;;13.38;;
16179;SDS011;8196;49.428;10.906;2023-10-19T03:43:25;22.17;;;13.47;;
16179;SDS011;8196;49.428;10.906;2023-10-19T03:45:53;24.45;;;13.82;;
16179;SDS011;8196;49.428;10.906;2023-10-19T03:48:21;18.90;;;12.52;;
16179;SDS011;8196;49.428;10.906;2023-10-19T03:50:53;20.38;;;13.00;;
16179;SDS011;8196;49.428;10.906;2023-10-19T03:53:22;20.30;;;11.82;;
16179;SDS011;8196;49.428;10.906;2023-10-19T03:55:51;18.35;;;11.25;;
16179;SDS011;8196;49.428;10.906;2023-10-19T03:58:23;15.65;;;10.18;;
16179;SDS011;8196;49.428;10.906;2023-10-19T04:00:50;14.15;;;8.95;;
16179;SDS011;8196;49.428;10.906;2023-10-19T04:03:18;12.02;;;7.68;;
16179;SDS011;8196;49.428;10.906;2023-10-19T04:05:51;12.00;;;7.25;;
16179;SDS011;8196;49.428;10.906;2023-10-19T04:08:18;9.48;;;5.70;;
16179;SDS011;8196;49.428;10.906;2023-10-19T04:10:49;5.78;;;4.07;;
16179;SDS011;8196;49.428;10.906;2023-10-19T04:13:36;3.97;;;2.65;;
16179;SDS011;8196;49.428;10.906;2023-10-19T04:16:03;4.50;;;2.33;;
16179;SDS011;8196;49.428;10.906;2023-10-19T04:18:35;2.88;;;2.58;;
16179;SDS011;8196;49.428;10.906;2023-10-19T04:21:04;6.65;;;3.60;;
16179;SDS011;8196;49.428;10.906;2023-10-19T04:23:31;3.20;;;2.75;;
16179;SDS011;8196;49.428;10.906;2023-10-19T04:26:02;3.88;;;2.15;;
16179;SDS011;8196;49.428;10.906;2023-10-19T04:28:37;1.73;;;1.63;;
16179;SDS011;8196;49.428;10.906;2023-10-19T04:31:07;2.70;;;1.63;;
16179;SDS011;8196;49.428;10.906;2023-10-19T04:33:39;2.47;;;1.92;;
16179;SDS011;8196;49.428;10.906;2023-10-19T04:36:08;1.00;;;1.00;;
16179;SDS011;8196;49.428;10.906;2023-10-19T04:38:37;2.53;;;1.92;;
16179;SDS011;8196;49.428;10.906;2023-10-19T04:41:07;1.58;;;1.27;;
16179;SDS011;8196;49.428;10.906;2023-10-19T04:43:35;1.90;;;1.80;;
16179;SDS011;8196;49.428;10.906;2023-10-19T04:46:05;3.42;;;1.90;;
16179;SDS011;8196;49.428;10.906;2023-10-19T04:48:37;2.27;;;1.33;;
16179;SDS011;8196;49.428;10.906;2023-10-19T04:51:06;0.98;;;0.98;;
16179;SDS011;8196;49.428;10.906;2023-10-19T04:53:35;1.70;;;1.52;;
16179;SDS011;8196;49.428;10.906;2023-10-19T04:56:05;1.75;;;1.63;;
16179;SDS011;8196;49.428;10.906;2023-10-19T04:58:35;1.30;;;1.20;;
16179;SDS011;8196;49.428;10.906;2023-10-19T05:01:03;1.25;;;1.15;;
16179;SDS011;8196;49.428;10.906;2023-10-19T05:03:31;0.90;;;0.80;;
16179;SDS011;8196;49.428;10.906;2023-10-19T05:05:59;0.53;;;0.30;;
16179;SDS011;8196;49.428;10.906;2023-10-19T05:08:27;0.98;;;0.98;;
16179;SDS011;8196;49.428;10.906;2023-10-19T05:10:55;0.40;;;0.40;;
16179;SDS011;8196;49.428;10.906;2023-10-19T05:13:25;1.00;;;1.00;;
16179;SDS011;8196;49.428;10.906;2023-10-19T05:15:53;0.47;;;0.47;;
16179;SDS011;8196;49.428;10.906;2023-10-19T05:18:21;0.35;;;0.35;;
16179;SDS011;8196;49.428;10.906;2023-10-19T05:20:49;0.50;;;0.50;;
16179;SDS011;8196;49.428;10.906;2023-10-19T05:23:23;0.37;;;0.37;;
16179;SDS011;8196;49.428;10.906;2023-10-19T05:25:51;0.52;;;0.52;;
16179;SDS011;8196;49.428;10.906;2023-10-19T05:28:19;0.40;;;0.40;;
16179;SDS011;8196;49.428;10.906;2023-10-19T05:30:48;0.60;;;0.60;;
16179;SDS011;8196;49.428;10.906;2023-10-19T05:33:16;0.80;;;0.70;;
16179;SDS011;8196;49.428;10.906;2023-10-19T05:35:47;1.60;;;1.20;;
16179;SDS011;8196;49.428;10.906;2023-10-19T05:38:15;1.80;;;1.20;;
16179;SDS011;8196;49.428;10.906;2023-10-19T05:40:42;0.40;;;0.40;;
16179;SDS011;8196;49.428;10.906;2023-10-19T05:43:09;0.30;;;0.30;;
16179;SDS011;8196;49.428;10.906;2023-10-19T05:45:38;0.70;;;0.70;;
16179;SDS011;8196;49.428;10.906;2023-10-19T05:48:07;0.70;;;0.70;;
16179;SDS011;8196;49.428;10.906;2023-10-19T05:50:34;1.60;;;1.10;;
16179;SDS011;8196;49.428;10.906;2023-10-19T05:53:03;0.50;;;0.50;;
16179;SDS011;8196;49.428;10.906;2023-10-19T05:55:31;0.70;;;0.55;;
16179;SDS011;8196;49.428;10.906;2023-10-19T05:57:58;1.15;;;1.15;;
16179;SDS011;8196;49.428;10.906;2023-10-19T06:02:57;1.02;;;0.93;;
16179;SDS011;8196;49.428;10.906;2023-10-19T06:05:26;0.95;;;0.95;;
16179;SDS011;8196;49.428;10.906;2023-10-19T06:07:53;0.52;;;0.52;;
16179;SDS011;8196;49.428;10.906;2023-10-19T06:10:20;0.73;;;0.73;;
16179;SDS011;8196;49.428;10.906;2023-10-19T06:12:49;0.65;;;0.65;;
16179;SDS011;8196;49.428;10.906;2023-10-19T06:15:17;0.63;;;0.63;;
16179;SDS011;8196;49.428;10.906;2023-10-19T06:17:44;0.30;;;0.30;;
16179;SDS011;8196;49.428;10.906;2023-10-19T06:20:12;0.40;;;0.40;;
16179;SDS011;8196;49.428;10.906;2023-10-19T06:22:56;0.80;;;0.80;;
16179;SDS011;8196;49.428;10.906;2023-10-19T06:27:57;2.00;;;1.55;;
16179;SDS011;8196;49.428;10.906;2023-10-19T06:30:25;0.50;;;0.50;;
16179;SDS011;8196;49.428;10.906;2023-10-19T06:32:54;0.70;;;0.65;;
16179;SDS011;8196;49.428;10.906;2023-10-19T06:35:22;0.30;;;0.30;;
16179;SDS011;8196;49.428;10.906;2023-10-19T06:37:49;0.30;;;0.30;;
16179;SDS011;8196;49.428;10.906;2023-10-19T06:40:17;1.30;;;1.23;;
16179;SDS011;8196;49.428;10.906;2023-10-19T06:42:44;1.25;;;0.85;;
16179;SDS011;8196;49.428;10.906;2023-10-19T06:45:12;0.35;;;0.35;;
16179;SDS011;8196;49.428;10.906;2023-10-19T06:47:42;0.30;;;0.30;;
16179;SDS011;8196;49.428;10.906;2023-10-19T06:50:11;0.70;;;0.70;;
16179;SDS011;8196;49.428;10.906;2023-10-19T06:52:39;0.47;;;0.47;;
16179;SDS011;8196;49.428;10.906;2023-10-19T06:55:07;0.40;;;0.40;;
16179;SDS011;8196;49.428;10.906;2023-10-19T06:57:40;1.30;;;1.20;;
16179;SDS011;8196;49.428;10.906;2023-10-19T07:00:10;0.90;;;0.65;;
16179;SDS011;8196;49.428;10.906;2023-10-19T07:02:41;2.20;;;0.93;;
16179;SDS011;8196;49.428;10.906;2023-10-19T07:05:10;0.63;;;0.63;;
16179;SDS011;8196;49.428;10.906;2023-10-19T07:07:39;0.50;;;0.50;;
16179;SDS011;8196;49.428;10.906;2023-10-19T07:10:07;0.20;;;0.20;;
16179;SDS011;8196;49.428;10.906;2023-10-19T07:12:36;0.40;;;0.40;;
16179;SDS011;8196;49.428;10.906;2023-10-19T07:15:05;0.20;;;0.20;;
16179;SDS011;8196;49.428;10.906;2023-10-19T07:17:34;0.68;;;0.38;;
16179;SDS011;8196;49.428;10.906;2023-10-19T07:20:04;0.10;;;0.10;;
16179;SDS011;8196;49.428;10.906;2023-10-19T07:22:32;0.25;;;0.25;;
16179;SDS011;8196;49.428;10.906;2023-10-19T07:25:00;0.30;;;0.30;;
16179;SDS011;8196;49.428;10.906;2023-10-19T07:27:30;0.20;;;0.20;;
16179;SDS011;8196;49.428;10.906;2023-10-19T07:30:04;0.30;;;0.30;;
16179;SDS011;8196;49.428;10.906;2023-10-19T07:32:35;0.80;;;0.38;;
16179;SDS011;8196;49.428;10.906;2023-10-19T07:35:04;0.40;;;0.40;;
16179;SDS011;8196;49.428;10.906;2023-10-19T07:37:32;0.50;;;0.50;;
16179;SDS011;8196;49.428;10.906;2023-10-19T07:39:59;0.70;;;0.70;;
16179;SDS011;8196;49.428;10.906;2023-10-19T07:42:26;0.30;;;0.30;;
16179;SDS011;8196;49.428;10.906;2023-10-19T07:44:53;0.22;;;0.22;;
16179;SDS011;8196;49.428;10.906;2023-10-19T07:47:21;0.30;;;0.22;;
16179;SDS011;8196;49.428;10.906;2023-10-19T07:49:48;0.60;;;0.60;;
16179;SDS011;8196;49.428;10.906;2023-10-19T07:52:18;0.90;;;0.90;;
16179;SDS011;8196;49.428;10.906;2023-10-19T07:54:45;0.30;;;0.30;;
16179;SDS011;8196;49.428;10.906;2023-10-19T07:57:13;0.40;;;0.38;;
16179;SDS011;8196;49.428;10.906;2023-10-19T07:59:40;0.40;;;0.40;;
16179;SDS011;8196;49.428;10.906;2023-10-19T08:02:08;0.30;;;0.30;;
16179;SDS011;8196;49.428;10.906;2023-10-19T08:04:36;0.75;;;0.75;;
16179;SDS011;8196;49.428;10.906;2023-10-19T08:07:04;0.65;;;0.65;;
16179;SDS011;8196;49.428;10.906;2023-10-19T08:09:31;1.15;;;1.10;;
16179;SDS011;8196;49.428;10.906;2023-10-19T08:12:01;0.60;;;0.60;;
16179;SDS011;8196;49.428;10.906;2023-10-19T08:14:31;0.60;;;0.60;;
16179;SDS011;8196;49.428;10.906;2023-10-19T08:16:59;1.35;;;1.35;;
16179;SDS011;8196;49.428;10.906;2023-10-19T08:19:27;0.30;;;0.30;;
16179;SDS011;8196;49.428;10.906;2023-10-19T08:21:57;0.20;;;0.20;;
16179;SDS011;8196;49.428;10.906;2023-10-19T08:24:24;0.38;;;0.38;;
16179;SDS011;8196;49.428;10.906;2023-10-19T08:26:55;0.57;;;0.57;;
16179;SDS011;8196;49.428;10.906;2023-10-19T08:29:22;1.50;;;1.20;;
16179;SDS011;8196;49.428;10.906;2023-10-19T08:31:50;1.00;;;0.90;;
16179;SDS011;8196;49.428;10.906;2023-10-19T08:34:17;1.45;;;0.98;;
16179;SDS011;8196;49.428;10.906;2023-10-19T08:36:46;0.70;;;0.70;;
16179;SDS011;8196;49.428;10.906;2023-10-19T08:39:15;1.00;;;0.90;;
16179;SDS011;8196;49.428;10.906;2023-10-19T08:41:44;0.28;;;0.28;;
16179;SDS011;8196;49.428;10.906;2023-10-19T08:44:11;0.50;;;0.50;;
16179;SDS011;8196;49.428;10.906;2023-10-19T08:46:40;0.60;;;0.60;;
16179;SDS011;8196;49.428;10.906;2023-10-19T08:49:10;0.88;;;0.88;;
16179;SDS011;8196;49.428;10.906;2023-10-19T08:51:39;1.57;;;1.43;;
16179;SDS011;8196;49.428;10.906;2023-10-19T08:54:06;0.80;;;0.80;;
16179;SDS011;8196;49.428;10.906;2023-10-19T08:56:37;0.73;;;0.73;;
16179;SDS011;8196;49.428;10.906;2023-10-19T08:59:05;0.43;;;0.43;;
16179;SDS011;8196;49.428;10.906;2023-10-19T09:01:32;1.33;;;1.23;;
16179;SDS011;8196;49.428;10.906;2023-10-19T09:04:01;2.20;;;0.57;;
16179;SDS011;8196;49.428;10.906;2023-10-19T09:06:28;1.23;;;1.23;;
16179;SDS011;8196;49.428;10.906;2023-10-19T09:08:55;1.75;;;1.65;;
16179;SDS011;8196;49.428;10.906;2023-10-19T09:11:24;1.50;;;1.30;;
16179;SDS011;8196;49.428;10.906;2023-10-19T09:13:51;2.10;;;1.20;;
16179;SDS011;8196;49.428;10.906;2023-10-19T09:16:20;1.42;;;1.35;;
16179;SDS011;8196;49.428;10.906;2023-10-19T09:18:48;3.17;;;2.67;;
16179;SDS011;8196;49.428;10.906;2023-10-19T09:21:16;4.25;;;2.65;;
16179;SDS011;8196;49.428;10.906;2023-10-19T09:23:52;4.63;;;2.97;;
16179;SDS011;8196;49.428;10.906;2023-10-19T09:26:21;3.83;;;2.78;;
16179;SDS011;8196;49.428;10.906;2023-10-19T09:28:49;3.58;;;2.53;;
16179;SDS011;8196;49.428;10.906;2023-10-19T09:31:17;5.70;;;4.10;;
16179;SDS011;8196;49.428;10.906;2023-10-19T09:33:47;6.82;;;4.00;;
16179;SDS011;8196;49.428;10.906;2023-10-19T09:36:15;4.88;;;3.90;;
16179;SDS011;8196;49.428;10.906;2023-10-19T09:41:11;7.20;;;4.53;;
16179;SDS011;8196;49.428;10.906;2023-10-19T09:43:41;10.40;;;5.55;;
16179;SDS011;8196;49.428;10.906;2023-10-19T09:46:10;8.75;;;6.40;;
16179;SDS011;8196;49.428;10.906;2023-10-19T09:48:39;9.70;;;5.85;;
16179;SDS011;8196;49.428;10.906;2023-10-19T09:51:08;8.63;;;5.85;;
16179;SDS011;8196;49.428;10.906;2023-10-19T09:53:43;7.25;;;5.30;;
16179;SDS011;8196;49.428;10.906;2023-10-19T09:56:15;8.27;;;5.72;;
16179;SDS011;8196;49.428;10.906;2023-10-19T09:58:48;10.02;;;6.70;;
16179;SDS011;8196;49.428;10.906;2023-10-19T10:01:15;10.55;;;6.50;;
16179;SDS011;8196;49.428;10.906;2023-10-19T10:03:44;9.57;;;6.22;;
16179;SDS011;8196;49.428;10.906;2023-10-19T10:06:12;10.10;;;6.18;;
16179;SDS011;8196;49.428;10.906;2023-10-19T10:08:42;14.30;;;6.70;;
16179;SDS011;8196;49.428;10.906;2023-10-19T10:11:18;10.05;;;6.45;;
16179;SDS011;8196;49.428;10.906;2023-10-19T10:13:47;13.38;;;6.88;;
16179;SDS011;8196;49.428;10.906;2023-10-19T10:16:19;9.65;;;6.60;;
16179;SDS011;8196;49.428;10.906;2023-10-19T10:18:47;10.30;;;6.75;;
16179;SDS011;8196;49.428;10.906;2023-10-19T10:21:15;10.82;;;7.18;;
16179;SDS011;8196;49.428;10.906;2023-10-19T10:23:44;11.18;;;6.60;;
16179;SDS011;8196;49.428;10.906;2023-10-19T10:26:13;10.57;;;6.15;;
16179;SDS011;8196;49.428;10.906;2023-10-19T10:28:41;12.00;;;7.63;;
16179;SDS011;8196;49.428;10.906;2023-10-19T10:31:10;11.90;;;7.32;;
16179;SDS011;8196;49.428;10.906;2023-10-19T10:33:40;13.05;;;7.22;;
16179;SDS011;8196;49.428;10.906;2023-10-19T10:36:08;11.40;;;6.70;;
16179;SDS011;8196;49.428;10.906;2023-10-19T10:38:37;10.85;;;7.30;;
16179;SDS011;8196;49.428;10.906;2023-10-19T10:41:05;12.48;;;7.90;;
16179;SDS011;8196;49.428;10.906;2023-10-19T10:43:52;12.77;;;8.23;;
16179;SDS011;8196;49.428;10.906;2023-10-19T10:46:20;13.07;;;8.30;;
16179;SDS011;8196;49.428;10.906;2023-10-19T10:48:48;11.35;;;7.53;;
16179;SDS011;8196;49.428;10.906;2023-10-19T10:51:16;11.13;;;7.30;;
16179;SDS011;8196;49.428;10.906;2023-10-19T10:53:43;11.82;;;7.80;;
16179;SDS011;8196;49.428;10.906;2023-10-19T10:56:14;10.90;;;7.55;;
16179;SDS011;8196;49.428;10.906;2023-10-19T10:58:41;10.70;;;7.00;;
16179;SDS011;8196;49.428;10.906;2023-10-19T11:01:08;11.00;;;7.20;;
16179;SDS011;8196;49.428;10.906;2023-10-19T11:03:37;9.95;;;8.10;;
16179;SDS011;8196;49.428;10.906;2023-10-19T11:06:05;9.02;;;7.13;;
16179;SDS011;8196;49.428;10.906;2023-10-19T11:08:34;10.05;;;7.18;;
16179;SDS011;8196;49.428;10.906;2023-10-19T11:11:03;10.23;;;7.20;;
16179;SDS011;8196;49.428;10.906;2023-10-19T11:13:31;10.57;;;6.63;;
16179;SDS011;8196;49.428;10.906;2023-10-19T11:16:02;11.32;;;7.32;;
16179;SDS011;8196;49.428;10.906;2023-10-19T11:21:01;10.27;;;6.50;;
16179;SDS011;8196;49.428;10.906;2023-10-19T11:23:37;8.13;;;6.60;;
16179;SDS011;8196;49.428;10.906;2023-10-19T11:26:04;10.63;;;6.90;;
16179;SDS011;8196;49.428;10.906;2023-10-19T11:28:32;8.25;;;6.78;;
16179;SDS011;8196;49.428;10.906;2023-10-19T11:31:16;7.63;;;6.37;;
16179;SDS011;8196;49.428;10.906;2023-10-19T11:33:44;7.90;;;6.43;;
16179;SDS011;8196;49.428;10.906;2023-10-19T11:36:12;9.43;;;6.15;;
16179;SDS011;8196;49.428;10.906;2023-10-19T11:38:40;6.78;;;6.07;;
16179;SDS011;8196;49.428;10.906;2023-10-19T11:41:09;10.93;;;6.38;;
16179;SDS011;8196;49.428;10.906;2023-10-19T11:43:36;7.33;;;6.10;;
16179;SDS011;8196;49.428;10.906;2023-10-19T11:46:03;12.38;;;6.15;;
16179;SDS011;8196;49.428;10.906;2023-10-19T11:48:32;8.53;;;6.50;;
16179;SDS011;8196;49.428;10.906;2023-10-19T11:51:00;7.47;;;5.83;;
16179;SDS011;8196;49.428;10.906;2023-10-19T11:53:33;12.07;;;6.68;;
16179;SDS011;8196;49.428;10.906;2023-10-19T11:56:03;10.52;;;6.97;;
16179;SDS011;8196;49.428;10.906;2023-10-19T11:58:32;8.70;;;6.43;;
16179;SDS011;8196;49.428;10.906;2023-10-19T12:01:01;10.73;;;6.53;;
16179;SDS011;8196;49.428;10.906;2023-10-19T12:03:31;8.32;;;6.65;;
16179;SDS011;8196;49.428;10.906;2023-10-19T12:06:03;8.70;;;6.53;;
16179;SDS011;8196;49.428;10.906;2023-10-19T12:08:33;7.33;;;6.07;;
16179;SDS011;8196;49.428;10.906;2023-10-19T12:11:00;8.77;;;6.82;;
16179;SDS011;8196;49.428;10.906;2023-10-19T12:13:30;9.02;;;6.60;;
16179;SDS011;8196;49.428;10.906;2023-10-19T12:15:59;10.43;;;6.60;;
16179;SDS011;8196;49.428;10.906;2023-10-19T12:18:31;9.47;;;6.73;;
16179;SDS011;8196;49.428;10.906;2023-10-19T12:20:58;9.18;;;6.88;;
16179;SDS011;8196;49.428;10.906;2023-10-19T12:23:26;9.90;;;6.78;;
16179;SDS011;8196;49.428;10.906;2023-10-19T12:25:53;8.25;;;6.32;;
16179;SDS011;8196;49.428;10.906;2023-10-19T12:28:23;8.93;;;6.30;;
16179;SDS011;8196;49.428;10.906;2023-10-19T12:30:51;9.57;;;6.70;;
16179;SDS011;8196;49.428;10.906;2023-10-19T12:33:19;9.13;;;6.77;;
16179;SDS011;8196;49.428;10.906;2023-10-19T12:35:47;9.67;;;6.77;;
16179;SDS011;8196;49.428;10.906;2023-10-19T12:38:23;9.80;;;6.77;;
16179;SDS011;8196;49.428;10.906;2023-10-19T12:40:51;9.75;;;6.95;;
16179;SDS011;8196;49.428;10.906;2023-10-19T12:43:20;8.90;;;6.93;;
16179;SDS011;8196;49.428;10.906;2023-10-19T12:45:48;9.05;;;6.93;;
16179;SDS011;8196;49.428;10.906;2023-10-19T12:48:17;11.23;;;7.65;;
16179;SDS011;8196;49.428;10.906;2023-10-19T12:50:44;10.85;;;8.05;;
16179;SDS011;8196;49.428;10.906;2023-10-19T12:53:11;9.60;;;7.22;;
16179;SDS011;8196;49.428;10.906;2023-10-19T12:55:38;8.95;;;7.00;;
16179;SDS011;8196;49.428;10.906;2023-10-19T12:58:05;11.38;;;7.38;;
16179;SDS011;8196;49.428;10.906;2023-10-19T13:00:33;12.02;;;7.75;;
16179;SDS011;8196;49.428;10.906;2023-10-19T13:03:10;11.35;;;7.32;;
16179;SDS011;8196;49.428;10.906;2023-10-19T13:05:42;10.43;;;7.55;;
16179;SDS011;8196;49.428;10.906;2023-10-19T13:08:11;10.02;;;6.65;;
16179;SDS011;8196;49.428;10.906;2023-10-19T13:10:40;10.93;;;8.00;;
16179;SDS011;8196;49.428;10.906;2023-10-19T13:13:10;12.13;;;8.23;;
16179;SDS011;8196;49.428;10.906;2023-10-19T13:15:39;11.47;;;7.77;;
16179;SDS011;8196;49.428;10.906;2023-10-19T13:18:06;9.38;;;7.32;;
16179;SDS011;8196;49.428;10.906;2023-10-19T13:20:37;10.20;;;6.93;;
16179;SDS011;8196;49.428;10.906;2023-10-19T13:23:06;11.40;;;6.78;;
16179;SDS011;8196;49.428;10.906;2023-10-19T13:25:38;8.68;;;7.55;;
16179;SDS011;8196;49.428;10.906;2023-10-19T13:28:08;11.27;;;7.85;;
16179;SDS011;8196;49.428;10.906;2023-10-19T13:30:36;10.18;;;7.45;;
16179;SDS011;8196;49.428;10.906;2023-10-19T13:33:04;10.38;;;8.23;;
16179;SDS011;8196;49.428;10.906;2023-10-19T13:35:32;9.68;;;7.55;;
16179;SDS011;8196;49.428;10.906;2023-10-19T13:37:59;10.37;;;7.47;;
16179;SDS011;8196;49.428;10.906;2023-10-19T13:40:27;9.93;;;7.10;;
16179;SDS011;8196;49.428;10.906;2023-10-19T13:42:56;8.88;;;7.05;;
16179;SDS011;8196;49.428;10.906;2023-10-19T13:45:24;10.90;;;7.88;;
16179;SDS011;8196;49.428;10.906;2023-10-19T13:47:51;11.73;;;8.02;;
16179;SDS011;8196;49.428;10.906;2023-10-19T13:50:21;11.00;;;7.68;;
16179;SDS011;8196;49.428;10.906;2023-10-19T13:52:50;9.27;;;7.72;;
16179;SDS011;8196;49.428;10.906;2023-10-19T13:55:18;9.82;;;8.43;;
16179;SDS011;8196;49.428;10.906;2023-10-19T13:57:47;10.55;;;8.32;;
16179;SDS011;8196;49.428;10.906;2023-10-19T14:00:14;10.90;;;8.27;;
16179;SDS011;8196;49.428;10.906;2023-10-19T14:02:49;11.95;;;9.10;;
16179;SDS011;8196;49.428;10.906;2023-10-19T14:05:17;11.77;;;9.05;;
16179;SDS011;8196;49.428;10.906;2023-10-19T14:07:46;11.03;;;8.37;;
16179;SDS011;8196;49.428;10.906;2023-10-19T14:10:14;11.02;;;8.57;;
16179;SDS011;8196;49.428;10.906;2023-10-19T14:12:42;13.80;;;9.48;;
16179;SDS011;8196;49.428;10.906;2023-10-19T14:15:12;11.70;;;9.38;;
16179;SDS011;8196;49.428;10.906;2023-10-19T14:17:40;10.57;;;9.02;;
16179;SDS011;8196;49.428;10.906;2023-10-19T14:20:07;10.93;;;9.00;;
16179;SDS011;8196;49.428;10.906;2023-10-19T14:25:07;11.48;;;10.27;;
16179;SDS011;8196;49.428;10.906;2023-10-19T14:30:08;10.52;;;9.20;;
16179;SDS011;8196;49.428;10.906;2023-10-19T14:32:39;11.38;;;9.60;;
16179;SDS011;8196;49.428;10.906;2023-10-19T14:35:06;12.38;;;9.07;;
16179;SDS011;8196;49.428;10.906;2023-10-19T14:37:38;12.15;;;9.68;;
16179;SDS011;8196;49.428;10.906;2023-10-19T14:40:07;9.98;;;8.90;;
16179;SDS011;8196;49.428;10.906;2023-10-19T14:42:36;10.70;;;8.93;;
16179;SDS011;8196;49.428;10.906;2023-10-19T14:45:05;13.38;;;8.93;;
16179;SDS011;8196;49.428;10.906;2023-10-19T14:47:37;10.07;;;8.93;;
16179;SDS011;8196;49.428;10.906;2023-10-19T14:50:07;10.38;;;9.00;;
16179;SDS011;8196;49.428;10.906;2023-10-19T14:52:37;11.85;;;9.48;;
16179;SDS011;8196;49.428;10.906;2023-10-19T14:55:05;11.48;;;9.07;;
16179;SDS011;8196;49.428;10.906;2023-10-19T14:57:33;12.38;;;8.45;;
16179;SDS011;8196;49.428;10.906;2023-10-19T15:00:00;10.43;;;8.73;;
16179;SDS011;8196;49.428;10.906;2023-10-19T15:02:41;10.82;;;8.73;;
16179;SDS011;8196;49.428;10.906;2023-10-19T15:05:09;11.95;;;8.52;;